sensor_id;sensor_type;location;lat;lon;timestamp;temperature;humidity
52107;DHT22;38105;52.968;5.974;2023-06-22T00:02:25;17.90;99.90
52107;DHT22;38105;52.968;5.974;2023-06-22T00:04:53;17.90;99.90
52107;DHT22;38105;52.968;5.974;2023-06-22T00:07:21;17.80;99.90
52107;DHT22;38105;52.968;5.974;2023-06-22T00:09:47;17.70;99.90
52107;DHT22;38105;52.968;5.974;2023-06-22T00:12:15;17.70;99.90
52107;DHT22;38105;52.968;5.974;2023-06-22T00:14:43;17.70;99.90
52107;DHT22;38105;52.968;5.974;2023-06-22T00:17:09;17.80;99.90
52107;DHT22;38105;52.968;5.974;2023-06-22T00:19:34;17.70;99.90
52107;DHT22;38105;52.968;5.974;2023-06-22T00:22:02;17.70;99.90
52107;DHT22;38105;52.968;5.974;2023-06-22T00:24:28;17.60;99.90
52107;DHT22;38105;52.968;5.974;2023-06-22T00:26:59;17.50;99.90
52107;DHT22;38105;52.968;5.974;2023-06-22T00:29:30;17.50;99.90
52107;DHT22;38105;52.968;5.974;2023-06-22T00:31:55;17.40;99.90
52107;DHT22;38105;52.968;5.974;2023-06-22T00:34:21;17.40;99.90
52107;DHT22;38105;52.968;5.974;2023-06-22T00:36:49;17.50;99.90
52107;DHT22;38105;52.968;5.974;2023-06-22T00:39:17;17.40;99.90
52107;DHT22;38105;52.968;5.974;2023-06-22T00:41:42;17.50;99.90
52107;DHT22;38105;52.968;5.974;2023-06-22T00:44:08;17.40;99.90
52107;DHT22;38105;52.968;5.974;2023-06-22T00:46:34;17.20;99.90
52107;DHT22;38105;52.968;5.974;2023-06-22T00:48:59;17.00;99.90
52107;DHT22;38105;52.968;5.974;2023-06-22T00:51:30;17.10;99.90
52107;DHT22;38105;52.968;5.974;2023-06-22T00:53:56;17.00;99.90
52107;DHT22;38105;52.968;5.974;2023-06-22T00:56:26;17.20;99.90
52107;DHT22;38105;52.968;5.974;2023-06-22T00:58:54;17.20;99.90
52107;DHT22;38105;52.968;5.974;2023-06-22T01:01:23;17.20;99.90
52107;DHT22;38105;52.968;5.974;2023-06-22T01:03:50;17.00;99.90
52107;DHT22;38105;52.968;5.974;2023-06-22T01:06:21;17.00;99.90
52107;DHT22;38105;52.968;5.974;2023-06-22T01:09:00;17.10;99.90
52107;DHT22;38105;52.968;5.974;2023-06-22T01:11:32;17.00;99.90
52107;DHT22;38105;52.968;5.974;2023-06-22T01:14:21;16.90;99.90
52107;DHT22;38105;52.968;5.974;2023-06-22T01:16:49;17.00;99.90
52107;DHT22;38105;52.968;5.974;2023-06-22T01:21:52;16.90;99.90
52107;DHT22;38105;52.968;5.974;2023-06-22T01:24:27;17.00;99.90
52107;DHT22;38105;52.968;5.974;2023-06-22T01:27:22;16.90;99.90
52107;DHT22;38105;52.968;5.974;2023-06-22T01:29:59;17.10;99.90
52107;DHT22;38105;52.968;5.974;2023-06-22T01:32:33;17.00;99.90
52107;DHT22;38105;52.968;5.974;2023-06-22T01:35:05;16.80;99.90
52107;DHT22;38105;52.968;5.974;2023-06-22T01:37:34;17.00;99.90
52107;DHT22;38105;52.968;5.974;2023-06-22T01:40:05;16.80;99.90
52107;DHT22;38105;52.968;5.974;2023-06-22T01:42:36;16.70;99.90
52107;DHT22;38105;52.968;5.974;2023-06-22T01:45:03;16.90;99.90
52107;DHT22;38105;52.968;5.974;2023-06-22T01:47:28;16.90;99.90
52107;DHT22;38105;52.968;5.974;2023-06-22T01:49:57;17.00;99.90
52107;DHT22;38105;52.968;5.974;2023-06-22T01:52:26;16.90;99.90
52107;DHT22;38105;52.968;5.974;2023-06-22T01:54:51;16.90;99.90
52107;DHT22;38105;52.968;5.974;2023-06-22T01:57:17;16.90;99.90
52107;DHT22;38105;52.968;5.974;2023-06-22T02:05:34;16.70;99.90
52107;DHT22;38105;52.968;5.974;2023-06-22T02:08:25;16.80;99.90
52107;DHT22;38105;52.968;5.974;2023-06-22T02:10:54;16.50;99.90
52107;DHT22;38105;52.968;5.974;2023-06-22T02:13:21;16.50;99.90
52107;DHT22;38105;52.968;5.974;2023-06-22T02:15:47;16.70;99.90
52107;DHT22;38105;52.968;5.974;2023-06-22T02:18:13;16.60;99.90
52107;DHT22;38105;52.968;5.974;2023-06-22T02:20:41;16.40;99.90
52107;DHT22;38105;52.968;5.974;2023-06-22T02:23:07;16.40;99.90
52107;DHT22;38105;52.968;5.974;2023-06-22T02:25:33;16.70;99.90
52107;DHT22;38105;52.968;5.974;2023-06-22T02:27:59;16.70;99.90
52107;DHT22;38105;52.968;5.974;2023-06-22T02:30:25;16.50;99.90
52107;DHT22;38105;52.968;5.974;2023-06-22T02:32:51;16.70;99.90
52107;DHT22;38105;52.968;5.974;2023-06-22T02:35:25;16.50;99.90
52107;DHT22;38105;52.968;5.974;2023-06-22T02:37:51;16.50;99.90
52107;DHT22;38105;52.968;5.974;2023-06-22T02:40:17;16.60;99.90
52107;DHT22;38105;52.968;5.974;2023-06-22T02:42:43;16.30;99.90
52107;DHT22;38105;52.968;5.974;2023-06-22T02:45:09;16.30;99.90
52107;DHT22;38105;52.968;5.974;2023-06-22T02:47:35;16.30;99.90
52107;DHT22;38105;52.968;5.974;2023-06-22T02:50:01;16.20;99.90
52107;DHT22;38105;52.968;5.974;2023-06-22T02:52:26;16.50;99.90
52107;DHT22;38105;52.968;5.974;2023-06-22T02:54:55;16.40;99.90
52107;DHT22;38105;52.968;5.974;2023-06-22T02:57:21;16.30;99.90
52107;DHT22;38105;52.968;5.974;2023-06-22T02:59:47;16.60;99.90
52107;DHT22;38105;52.968;5.974;2023-06-22T03:02:12;16.40;99.90
52107;DHT22;38105;52.968;5.974;2023-06-22T03:04:38;16.40;99.90
52107;DHT22;38105;52.968;5.974;2023-06-22T03:07:04;16.20;99.90
52107;DHT22;38105;52.968;5.974;2023-06-22T03:09:32;16.20;99.90
52107;DHT22;38105;52.968;5.974;2023-06-22T03:12:00;16.10;99.90
52107;DHT22;38105;52.968;5.974;2023-06-22T03:14:30;16.10;99.90
52107;DHT22;38105;52.968;5.974;2023-06-22T03:16:55;16.30;99.90
52107;DHT22;38105;52.968;5.974;2023-06-22T03:19:27;16.00;99.90
52107;DHT22;38105;52.968;5.974;2023-06-22T03:22:01;16.20;99.90
52107;DHT22;38105;52.968;5.974;2023-06-22T03:24:27;16.00;99.90
52107;DHT22;38105;52.968;5.974;2023-06-22T03:26:56;16.10;99.90
52107;DHT22;38105;52.968;5.974;2023-06-22T03:29:23;16.00;99.90
52107;DHT22;38105;52.968;5.974;2023-06-22T03:31:50;16.10;99.90
52107;DHT22;38105;52.968;5.974;2023-06-22T03:34:18;15.70;99.90
52107;DHT22;38105;52.968;5.974;2023-06-22T03:36:44;16.10;99.90
52107;DHT22;38105;52.968;5.974;2023-06-22T03:39:10;15.80;99.90
52107;DHT22;38105;52.968;5.974;2023-06-22T03:41:38;15.80;99.90
52107;DHT22;38105;52.968;5.974;2023-06-22T03:44:04;16.00;99.90
52107;DHT22;38105;52.968;5.974;2023-06-22T03:46:30;15.90;99.90
52107;DHT22;38105;52.968;5.974;2023-06-22T03:48:58;15.70;99.90
52107;DHT22;38105;52.968;5.974;2023-06-22T03:51:24;15.60;99.90
52107;DHT22;38105;52.968;5.974;2023-06-22T03:53:54;15.90;99.90
52107;DHT22;38105;52.968;5.974;2023-06-22T03:56:20;15.90;99.90
52107;DHT22;38105;52.968;5.974;2023-06-22T03:58:48;15.90;99.90
52107;DHT22;38105;52.968;5.974;2023-06-22T04:01:14;15.80;99.90
52107;DHT22;38105;52.968;5.974;2023-06-22T04:03:42;15.70;99.90
52107;DHT22;38105;52.968;5.974;2023-06-22T04:06:13;16.00;99.90
52107;DHT22;38105;52.968;5.974;2023-06-22T04:08:41;16.00;99.90
52107;DHT22;38105;52.968;5.974;2023-06-22T04:11:07;16.10;99.90
52107;DHT22;38105;52.968;5.974;2023-06-22T04:13:36;15.90;99.90
52107;DHT22;38105;52.968;5.974;2023-06-22T04:16:04;16.20;99.90
52107;DHT22;38105;52.968;5.974;2023-06-22T04:18:30;16.00;99.90
52107;DHT22;38105;52.968;5.974;2023-06-22T04:21:01;16.20;99.90
52107;DHT22;38105;52.968;5.974;2023-06-22T04:23:30;16.20;99.90
52107;DHT22;38105;52.968;5.974;2023-06-22T04:25:55;16.10;99.90
52107;DHT22;38105;52.968;5.974;2023-06-22T04:28:22;16.10;99.90
52107;DHT22;38105;52.968;5.974;2023-06-22T04:30:48;16.20;99.90
52107;DHT22;38105;52.968;5.974;2023-06-22T04:33:19;16.30;99.90
52107;DHT22;38105;52.968;5.974;2023-06-22T04:35:47;16.20;99.90
52107;DHT22;38105;52.968;5.974;2023-06-22T04:38:13;16.40;99.90
52107;DHT22;38105;52.968;5.974;2023-06-22T04:40:39;16.20;99.90
52107;DHT22;38105;52.968;5.974;2023-06-22T04:43:05;16.70;99.90
52107;DHT22;38105;52.968;5.974;2023-06-22T04:45:35;16.90;99.90
52107;DHT22;38105;52.968;5.974;2023-06-22T04:48:04;17.50;99.90
52107;DHT22;38105;52.968;5.974;2023-06-22T04:50:33;18.10;99.90
52107;DHT22;38105;52.968;5.974;2023-06-22T04:53:01;19.00;99.90
52107;DHT22;38105;52.968;5.974;2023-06-22T04:55:33;19.90;99.90
52107;DHT22;38105;52.968;5.974;2023-06-22T04:58:01;20.40;99.90
52107;DHT22;38105;52.968;5.974;2023-06-22T05:00:33;20.70;99.90
52107;DHT22;38105;52.968;5.974;2023-06-22T05:03:01;21.00;99.90
52107;DHT22;38105;52.968;5.974;2023-06-22T05:05:29;21.60;99.90
52107;DHT22;38105;52.968;5.974;2023-06-22T05:07:56;21.90;99.90
52107;DHT22;38105;52.968;5.974;2023-06-22T05:10:28;22.60;99.90
52107;DHT22;38105;52.968;5.974;2023-06-22T05:12:54;23.00;99.90
52107;DHT22;38105;52.968;5.974;2023-06-22T05:15:19;23.20;99.90
52107;DHT22;38105;52.968;5.974;2023-06-22T05:17:55;23.60;99.90
52107;DHT22;38105;52.968;5.974;2023-06-22T05:20:23;23.90;99.90
52107;DHT22;38105;52.968;5.974;2023-06-22T05:22:52;24.30;99.90
52107;DHT22;38105;52.968;5.974;2023-06-22T05:25:18;24.60;99.90
52107;DHT22;38105;52.968;5.974;2023-06-22T05:27:46;24.70;99.90
52107;DHT22;38105;52.968;5.974;2023-06-22T05:30:15;24.60;99.90
52107;DHT22;38105;52.968;5.974;2023-06-22T05:32:41;24.80;99.90
52107;DHT22;38105;52.968;5.974;2023-06-22T05:35:09;25.00;99.90
52107;DHT22;38105;52.968;5.974;2023-06-22T05:37:35;24.50;99.90
52107;DHT22;38105;52.968;5.974;2023-06-22T05:40:00;24.00;99.90
52107;DHT22;38105;52.968;5.974;2023-06-22T05:42:27;23.80;99.90
52107;DHT22;38105;52.968;5.974;2023-06-22T05:44:53;23.40;99.90
52107;DHT22;38105;52.968;5.974;2023-06-22T05:47:18;23.10;99.90
52107;DHT22;38105;52.968;5.974;2023-06-22T05:49:44;22.70;99.90
52107;DHT22;38105;52.968;5.974;2023-06-22T05:52:10;22.50;99.90
52107;DHT22;38105;52.968;5.974;2023-06-22T05:54:37;22.50;99.90
52107;DHT22;38105;52.968;5.974;2023-06-22T05:57:04;22.70;99.90
52107;DHT22;38105;52.968;5.974;2023-06-22T05:59:30;22.80;99.90
52107;DHT22;38105;52.968;5.974;2023-06-22T06:01:58;23.10;99.90
52107;DHT22;38105;52.968;5.974;2023-06-22T06:04:24;23.30;99.90
52107;DHT22;38105;52.968;5.974;2023-06-22T06:06:49;23.20;99.90
52107;DHT22;38105;52.968;5.974;2023-06-22T06:09:15;23.40;99.90
52107;DHT22;38105;52.968;5.974;2023-06-22T06:11:43;24.00;99.90
52107;DHT22;38105;52.968;5.974;2023-06-22T06:14:11;24.20;99.90
52107;DHT22;38105;52.968;5.974;2023-06-22T06:16:39;24.20;99.90
52107;DHT22;38105;52.968;5.974;2023-06-22T06:19:05;24.50;99.90
52107;DHT22;38105;52.968;5.974;2023-06-22T06:21:30;24.60;99.90
52107;DHT22;38105;52.968;5.974;2023-06-22T06:23:56;24.60;99.90
52107;DHT22;38105;52.968;5.974;2023-06-22T06:26:24;24.70;99.90
52107;DHT22;38105;52.968;5.974;2023-06-22T06:29:00;24.40;99.90
52107;DHT22;38105;52.968;5.974;2023-06-22T06:31:26;24.40;99.90
52107;DHT22;38105;52.968;5.974;2023-06-22T06:34:00;24.50;99.90
52107;DHT22;38105;52.968;5.974;2023-06-22T06:36:26;24.30;99.90
52107;DHT22;38105;52.968;5.974;2023-06-22T06:38:54;24.20;99.90
52107;DHT22;38105;52.968;5.974;2023-06-22T06:41:20;24.30;99.90
52107;DHT22;38105;52.968;5.974;2023-06-22T06:43:46;24.40;99.90
52107;DHT22;38105;52.968;5.974;2023-06-22T06:46:14;24.40;99.90
52107;DHT22;38105;52.968;5.974;2023-06-22T06:48:40;24.10;99.90
52107;DHT22;38105;52.968;5.974;2023-06-22T06:51:08;24.20;99.90
52107;DHT22;38105;52.968;5.974;2023-06-22T06:53:38;24.50;99.90
52107;DHT22;38105;52.968;5.974;2023-06-22T06:56:06;25.00;99.90
52107;DHT22;38105;52.968;5.974;2023-06-22T06:58:32;25.50;99.90
52107;DHT22;38105;52.968;5.974;2023-06-22T07:00:58;25.80;99.90
52107;DHT22;38105;52.968;5.974;2023-06-22T07:03:24;26.40;99.90
52107;DHT22;38105;52.968;5.974;2023-06-22T07:05:49;26.70;99.90
52107;DHT22;38105;52.968;5.974;2023-06-22T07:08:15;26.90;99.90
52107;DHT22;38105;52.968;5.974;2023-06-22T07:10:43;27.10;99.90
52107;DHT22;38105;52.968;5.974;2023-06-22T07:13:08;27.40;99.90
52107;DHT22;38105;52.968;5.974;2023-06-22T07:15:34;27.70;99.90
52107;DHT22;38105;52.968;5.974;2023-06-22T07:18:02;28.60;99.90
52107;DHT22;38105;52.968;5.974;2023-06-22T07:20:28;28.50;99.90
52107;DHT22;38105;52.968;5.974;2023-06-22T07:22:54;28.50;99.90
52107;DHT22;38105;52.968;5.974;2023-06-22T07:25:26;28.30;99.90
52107;DHT22;38105;52.968;5.974;2023-06-22T07:28:05;29.00;99.90
52107;DHT22;38105;52.968;5.974;2023-06-22T07:30:33;29.80;99.90
52107;DHT22;38105;52.968;5.974;2023-06-22T07:32:59;30.20;99.90
52107;DHT22;38105;52.968;5.974;2023-06-22T07:35:31;29.70;99.90
52107;DHT22;38105;52.968;5.974;2023-06-22T07:38:00;30.00;99.90
52107;DHT22;38105;52.968;5.974;2023-06-22T07:40:26;30.20;99.90
52107;DHT22;38105;52.968;5.974;2023-06-22T07:42:54;30.20;99.90
52107;DHT22;38105;52.968;5.974;2023-06-22T07:45:20;30.20;99.90
52107;DHT22;38105;52.968;5.974;2023-06-22T07:47:46;29.90;99.90
52107;DHT22;38105;52.968;5.974;2023-06-22T07:50:15;29.80;99.90
52107;DHT22;38105;52.968;5.974;2023-06-22T07:52:40;29.70;99.90
52107;DHT22;38105;52.968;5.974;2023-06-22T07:55:09;29.90;99.90
52107;DHT22;38105;52.968;5.974;2023-06-22T07:57:37;30.30;99.90
52107;DHT22;38105;52.968;5.974;2023-06-22T08:00:05;30.80;99.90
52107;DHT22;38105;52.968;5.974;2023-06-22T08:02:43;31.00;99.90
52107;DHT22;38105;52.968;5.974;2023-06-22T08:05:09;31.10;99.90
52107;DHT22;38105;52.968;5.974;2023-06-22T08:07:36;30.70;99.90
52107;DHT22;38105;52.968;5.974;2023-06-22T08:10:05;31.40;99.90
52107;DHT22;38105;52.968;5.974;2023-06-22T08:12:31;31.20;99.90
52107;DHT22;38105;52.968;5.974;2023-06-22T08:14:57;31.40;99.90
52107;DHT22;38105;52.968;5.974;2023-06-22T08:17:26;31.20;99.90
52107;DHT22;38105;52.968;5.974;2023-06-22T08:19:54;31.20;99.90
52107;DHT22;38105;52.968;5.974;2023-06-22T08:22:20;30.70;99.90
52107;DHT22;38105;52.968;5.974;2023-06-22T08:24:46;31.00;99.90
52107;DHT22;38105;52.968;5.974;2023-06-22T08:27:15;30.50;99.90
52107;DHT22;38105;52.968;5.974;2023-06-22T08:29:43;30.10;99.90
52107;DHT22;38105;52.968;5.974;2023-06-22T08:32:13;30.10;99.90
52107;DHT22;38105;52.968;5.974;2023-06-22T08:34:38;30.40;99.90
52107;DHT22;38105;52.968;5.974;2023-06-22T08:37:11;30.80;99.90
52107;DHT22;38105;52.968;5.974;2023-06-22T08:39:37;31.40;99.90
52107;DHT22;38105;52.968;5.974;2023-06-22T08:42:04;31.50;99.90
52107;DHT22;38105;52.968;5.974;2023-06-22T08:44:30;31.10;99.90
52107;DHT22;38105;52.968;5.974;2023-06-22T08:46:58;31.10;99.90
52107;DHT22;38105;52.968;5.974;2023-06-22T08:49:24;31.30;99.90
52107;DHT22;38105;52.968;5.974;2023-06-22T08:51:50;31.40;99.90
52107;DHT22;38105;52.968;5.974;2023-06-22T08:54:18;31.30;99.90
52107;DHT22;38105;52.968;5.974;2023-06-22T08:56:44;31.20;99.90
52107;DHT22;38105;52.968;5.974;2023-06-22T08:59:09;30.60;99.90
52107;DHT22;38105;52.968;5.974;2023-06-22T09:01:37;30.20;99.90
52107;DHT22;38105;52.968;5.974;2023-06-22T09:04:06;30.40;99.90
52107;DHT22;38105;52.968;5.974;2023-06-22T09:06:33;30.70;99.90
52107;DHT22;38105;52.968;5.974;2023-06-22T09:08:58;31.20;99.90
52107;DHT22;38105;52.968;5.974;2023-06-22T09:11:27;31.40;99.90
52107;DHT22;38105;52.968;5.974;2023-06-22T09:13:53;31.20;99.90
52107;DHT22;38105;52.968;5.974;2023-06-22T09:16:19;31.40;99.90
52107;DHT22;38105;52.968;5.974;2023-06-22T09:18:48;31.20;99.90
52107;DHT22;38105;52.968;5.974;2023-06-22T09:21:14;31.10;99.90
52107;DHT22;38105;52.968;5.974;2023-06-22T09:23:40;30.80;99.90
52107;DHT22;38105;52.968;5.974;2023-06-22T09:26:10;30.60;99.90
52107;DHT22;38105;52.968;5.974;2023-06-22T09:28:36;30.70;99.90
52107;DHT22;38105;52.968;5.974;2023-06-22T09:31:01;31.00;99.90
52107;DHT22;38105;52.968;5.974;2023-06-22T09:33:30;31.00;99.90
52107;DHT22;38105;52.968;5.974;2023-06-22T09:35:56;31.00;99.90
52107;DHT22;38105;52.968;5.974;2023-06-22T09:38:24;30.90;99.90
52107;DHT22;38105;52.968;5.974;2023-06-22T09:40:50;31.00;99.90
52107;DHT22;38105;52.968;5.974;2023-06-22T09:43:17;31.30;99.90
52107;DHT22;38105;52.968;5.974;2023-06-22T09:45:42;31.50;99.90
52107;DHT22;38105;52.968;5.974;2023-06-22T09:48:09;32.10;99.90
52107;DHT22;38105;52.968;5.974;2023-06-22T09:50:37;32.30;99.90
52107;DHT22;38105;52.968;5.974;2023-06-22T09:53:03;32.50;99.90
52107;DHT22;38105;52.968;5.974;2023-06-22T09:55:28;32.40;99.90
52107;DHT22;38105;52.968;5.974;2023-06-22T09:57:54;32.00;99.90
52107;DHT22;38105;52.968;5.974;2023-06-22T10:00:21;31.40;99.90
52107;DHT22;38105;52.968;5.974;2023-06-22T10:02:48;31.70;99.90
52107;DHT22;38105;52.968;5.974;2023-06-22T10:05:13;31.80;99.90
52107;DHT22;38105;52.968;5.974;2023-06-22T10:07:39;32.10;99.90
52107;DHT22;38105;52.968;5.974;2023-06-22T10:10:14;32.00;99.90
52107;DHT22;38105;52.968;5.974;2023-06-22T10:12:48;31.70;99.90
52107;DHT22;38105;52.968;5.974;2023-06-22T10:15:14;31.50;99.90
52107;DHT22;38105;52.968;5.974;2023-06-22T10:17:40;31.60;99.90
52107;DHT22;38105;52.968;5.974;2023-06-22T10:20:12;31.10;99.90
52107;DHT22;38105;52.968;5.974;2023-06-22T10:22:42;31.30;99.90
52107;DHT22;38105;52.968;5.974;2023-06-22T10:25:09;31.50;99.90
52107;DHT22;38105;52.968;5.974;2023-06-22T10:27:39;31.60;99.90
52107;DHT22;38105;52.968;5.974;2023-06-22T10:30:11;31.60;99.90
52107;DHT22;38105;52.968;5.974;2023-06-22T10:32:38;31.50;99.90
52107;DHT22;38105;52.968;5.974;2023-06-22T10:35:08;31.40;99.90
52107;DHT22;38105;52.968;5.974;2023-06-22T10:37:33;31.40;99.90
52107;DHT22;38105;52.968;5.974;2023-06-22T10:40:03;31.50;99.90
52107;DHT22;38105;52.968;5.974;2023-06-22T10:42:32;31.60;99.90
52107;DHT22;38105;52.968;5.974;2023-06-22T10:45:02;31.80;99.90
52107;DHT22;38105;52.968;5.974;2023-06-22T10:47:30;31.70;99.90
52107;DHT22;38105;52.968;5.974;2023-06-22T10:49:59;31.70;99.90
52107;DHT22;38105;52.968;5.974;2023-06-22T10:52:24;31.40;99.90
52107;DHT22;38105;52.968;5.974;2023-06-22T10:54:50;31.00;99.40
52107;DHT22;38105;52.968;5.974;2023-06-22T10:57:19;31.10;99.90
52107;DHT22;38105;52.968;5.974;2023-06-22T10:59:44;30.90;99.90
52107;DHT22;38105;52.968;5.974;2023-06-22T11:02:10;30.80;99.90
52107;DHT22;38105;52.968;5.974;2023-06-22T11:04:36;30.70;99.90
52107;DHT22;38105;52.968;5.974;2023-06-22T11:07:02;30.50;99.90
52107;DHT22;38105;52.968;5.974;2023-06-22T11:09:27;30.30;99.80
52107;DHT22;38105;52.968;5.974;2023-06-22T11:11:59;30.00;99.80
52107;DHT22;38105;52.968;5.974;2023-06-22T11:14:25;30.10;99.90
52107;DHT22;38105;52.968;5.974;2023-06-22T11:16:57;30.20;99.90
52107;DHT22;38105;52.968;5.974;2023-06-22T11:19:25;30.10;99.90
52107;DHT22;38105;52.968;5.974;2023-06-22T11:21:51;29.90;99.90
52107;DHT22;38105;52.968;5.974;2023-06-22T11:24:17;30.00;99.90
52107;DHT22;38105;52.968;5.974;2023-06-22T11:26:43;29.80;99.90
52107;DHT22;38105;52.968;5.974;2023-06-22T11:29:11;29.70;99.90
52107;DHT22;38105;52.968;5.974;2023-06-22T11:31:38;29.50;99.90
52107;DHT22;38105;52.968;5.974;2023-06-22T11:34:04;29.50;99.90
52107;DHT22;38105;52.968;5.974;2023-06-22T11:36:32;29.40;99.90
52107;DHT22;38105;52.968;5.974;2023-06-22T11:39:02;29.30;99.90
52107;DHT22;38105;52.968;5.974;2023-06-22T11:41:29;29.10;99.90
52107;DHT22;38105;52.968;5.974;2023-06-22T11:43:54;28.90;99.90
52107;DHT22;38105;52.968;5.974;2023-06-22T11:46:20;28.90;99.90
52107;DHT22;38105;52.968;5.974;2023-06-22T11:48:49;29.00;99.90
52107;DHT22;38105;52.968;5.974;2023-06-22T11:51:15;28.90;99.90
52107;DHT22;38105;52.968;5.974;2023-06-22T11:53:43;28.80;99.90
52107;DHT22;38105;52.968;5.974;2023-06-22T11:56:09;28.80;99.90
52107;DHT22;38105;52.968;5.974;2023-06-22T11:58:39;28.70;99.90
52107;DHT22;38105;52.968;5.974;2023-06-22T12:01:08;28.70;99.90
52107;DHT22;38105;52.968;5.974;2023-06-22T12:03:33;28.70;99.90
52107;DHT22;38105;52.968;5.974;2023-06-22T12:06:00;28.40;99.90
52107;DHT22;38105;52.968;5.974;2023-06-22T12:08:26;28.20;99.90
52107;DHT22;38105;52.968;5.974;2023-06-22T12:10:52;28.20;99.90
52107;DHT22;38105;52.968;5.974;2023-06-22T12:13:19;28.20;99.90
52107;DHT22;38105;52.968;5.974;2023-06-22T12:15:45;28.30;99.90
52107;DHT22;38105;52.968;5.974;2023-06-22T12:18:11;28.20;99.90
52107;DHT22;38105;52.968;5.974;2023-06-22T12:20:36;28.30;99.90
52107;DHT22;38105;52.968;5.974;2023-06-22T12:23:02;28.30;99.90
52107;DHT22;38105;52.968;5.974;2023-06-22T12:25:28;28.20;99.90
52107;DHT22;38105;52.968;5.974;2023-06-22T12:27:53;27.90;99.90
52107;DHT22;38105;52.968;5.974;2023-06-22T12:30:19;27.80;99.90
52107;DHT22;38105;52.968;5.974;2023-06-22T12:32:45;27.80;99.90
52107;DHT22;38105;52.968;5.974;2023-06-22T12:35:11;27.70;99.90
52107;DHT22;38105;52.968;5.974;2023-06-22T12:37:42;27.60;99.90
52107;DHT22;38105;52.968;5.974;2023-06-22T12:40:09;27.70;99.90
52107;DHT22;38105;52.968;5.974;2023-06-22T12:42:35;27.70;99.90
52107;DHT22;38105;52.968;5.974;2023-06-22T12:45:00;27.80;99.90
52107;DHT22;38105;52.968;5.974;2023-06-22T12:47:26;27.90;99.90
52107;DHT22;38105;52.968;5.974;2023-06-22T12:49:52;27.90;99.90
52107;DHT22;38105;52.968;5.974;2023-06-22T12:52:17;27.90;99.90
52107;DHT22;38105;52.968;5.974;2023-06-22T12:54:43;27.90;99.90
52107;DHT22;38105;52.968;5.974;2023-06-22T12:57:09;27.70;99.90
52107;DHT22;38105;52.968;5.974;2023-06-22T12:59:34;27.70;99.90
52107;DHT22;38105;52.968;5.974;2023-06-22T13:02:00;27.70;99.90
52107;DHT22;38105;52.968;5.974;2023-06-22T13:04:25;27.70;99.90
52107;DHT22;38105;52.968;5.974;2023-06-22T13:06:51;27.70;99.90
52107;DHT22;38105;52.968;5.974;2023-06-22T13:09:18;27.60;99.90
52107;DHT22;38105;52.968;5.974;2023-06-22T13:11:45;27.40;99.90
52107;DHT22;38105;52.968;5.974;2023-06-22T13:14:10;27.30;99.90
52107;DHT22;38105;52.968;5.974;2023-06-22T13:16:36;27.30;99.90
52107;DHT22;38105;52.968;5.974;2023-06-22T13:19:02;27.30;99.90
52107;DHT22;38105;52.968;5.974;2023-06-22T13:21:28;27.10;99.90
52107;DHT22;38105;52.968;5.974;2023-06-22T13:23:53;27.10;99.90
52107;DHT22;38105;52.968;5.974;2023-06-22T13:26:20;27.10;99.90
52107;DHT22;38105;52.968;5.974;2023-06-22T13:28:46;27.10;99.90
52107;DHT22;38105;52.968;5.974;2023-06-22T13:31:12;27.10;99.90
52107;DHT22;38105;52.968;5.974;2023-06-22T13:33:38;27.10;99.90
52107;DHT22;38105;52.968;5.974;2023-06-22T13:36:04;27.10;99.90
52107;DHT22;38105;52.968;5.974;2023-06-22T13:38:31;26.90;99.90
52107;DHT22;38105;52.968;5.974;2023-06-22T13:40:57;26.90;99.90
52107;DHT22;38105;52.968;5.974;2023-06-22T13:43:26;26.80;99.90
52107;DHT22;38105;52.968;5.974;2023-06-22T13:45:52;26.60;99.90
52107;DHT22;38105;52.968;5.974;2023-06-22T13:48:18;26.60;99.90
52107;DHT22;38105;52.968;5.974;2023-06-22T13:50:43;26.50;99.90
52107;DHT22;38105;52.968;5.974;2023-06-22T13:53:09;26.30;99.90
52107;DHT22;38105;52.968;5.974;2023-06-22T13:55:35;26.20;99.90
52107;DHT22;38105;52.968;5.974;2023-06-22T13:58:00;26.00;99.90
52107;DHT22;38105;52.968;5.974;2023-06-22T14:00:26;25.90;99.90
52107;DHT22;38105;52.968;5.974;2023-06-22T14:02:53;25.90;99.90
52107;DHT22;38105;52.968;5.974;2023-06-22T14:05:20;25.80;99.90
52107;DHT22;38105;52.968;5.974;2023-06-22T14:07:45;25.70;99.90
52107;DHT22;38105;52.968;5.974;2023-06-22T14:10:11;25.70;99.90
52107;DHT22;38105;52.968;5.974;2023-06-22T14:12:37;25.80;99.90
52107;DHT22;38105;52.968;5.974;2023-06-22T14:15:03;25.70;99.90
52107;DHT22;38105;52.968;5.974;2023-06-22T14:17:29;25.50;99.90
52107;DHT22;38105;52.968;5.974;2023-06-22T14:19:54;25.50;99.90
52107;DHT22;38105;52.968;5.974;2023-06-22T14:22:21;25.50;99.90
52107;DHT22;38105;52.968;5.974;2023-06-22T14:24:48;25.40;99.90
52107;DHT22;38105;52.968;5.974;2023-06-22T14:27:14;25.50;99.90
52107;DHT22;38105;52.968;5.974;2023-06-22T14:29:40;25.40;99.90
52107;DHT22;38105;52.968;5.974;2023-06-22T14:32:06;25.20;99.90
52107;DHT22;38105;52.968;5.974;2023-06-22T14:34:33;25.30;99.90
52107;DHT22;38105;52.968;5.974;2023-06-22T14:37:01;25.20;99.90
52107;DHT22;38105;52.968;5.974;2023-06-22T14:39:27;25.20;99.90
52107;DHT22;38105;52.968;5.974;2023-06-22T14:41:53;25.10;99.90
52107;DHT22;38105;52.968;5.974;2023-06-22T14:44:18;25.10;99.90
52107;DHT22;38105;52.968;5.974;2023-06-22T14:46:44;25.00;99.90
52107;DHT22;38105;52.968;5.974;2023-06-22T14:49:10;24.80;99.90
52107;DHT22;38105;52.968;5.974;2023-06-22T14:51:35;24.80;99.90
52107;DHT22;38105;52.968;5.974;2023-06-22T14:54:01;24.70;99.90
52107;DHT22;38105;52.968;5.974;2023-06-22T14:56:27;24.80;99.90
52107;DHT22;38105;52.968;5.974;2023-06-22T14:58:52;24.60;99.90
52107;DHT22;38105;52.968;5.974;2023-06-22T15:01:18;24.40;99.90
52107;DHT22;38105;52.968;5.974;2023-06-22T15:03:46;24.30;99.90
52107;DHT22;38105;52.968;5.974;2023-06-22T15:06:12;24.10;99.90
52107;DHT22;38105;52.968;5.974;2023-06-22T15:08:39;24.00;99.90
52107;DHT22;38105;52.968;5.974;2023-06-22T15:11:05;23.80;99.90
52107;DHT22;38105;52.968;5.974;2023-06-22T15:13:31;23.70;99.90
52107;DHT22;38105;52.968;5.974;2023-06-22T15:16:01;23.70;99.90
52107;DHT22;38105;52.968;5.974;2023-06-22T15:18:27;23.70;99.90
52107;DHT22;38105;52.968;5.974;2023-06-22T15:20:55;23.50;99.90
52107;DHT22;38105;52.968;5.974;2023-06-22T15:23:21;23.60;99.90
52107;DHT22;38105;52.968;5.974;2023-06-22T15:25:46;23.60;99.90
52107;DHT22;38105;52.968;5.974;2023-06-22T15:28:12;23.50;99.90
52107;DHT22;38105;52.968;5.974;2023-06-22T15:30:38;23.50;99.90
52107;DHT22;38105;52.968;5.974;2023-06-22T15:33:04;23.50;99.90
52107;DHT22;38105;52.968;5.974;2023-06-22T15:35:32;23.40;99.90
52107;DHT22;38105;52.968;5.974;2023-06-22T15:37:58;23.40;99.90
52107;DHT22;38105;52.968;5.974;2023-06-22T15:40:24;23.30;99.90